sensor_id;sensor_type;location;lat;lon;timestamp;P1;durP1;ratioP1;P2;durP2;ratioP2
19036;SDS011;9651;49.138;8.900;2023-03-20T00:00:56;1.53;;;1.30;;
19036;SDS011;9651;49.138;8.900;2023-03-20T00:04:59;1.90;;;1.60;;
19036;SDS011;9651;49.138;8.900;2023-03-20T00:09:00;1.50;;;1.40;;
19036;SDS011;9651;49.138;8.900;2023-03-20T00:13:03;1.53;;;1.20;;
19036;SDS011;9651;49.138;8.900;2023-03-20T00:17:09;1.83;;;1.50;;
19036;SDS011;9651;49.138;8.900;2023-03-20T00:21:13;1.63;;;1.33;;
19036;SDS011;9651;49.138;8.900;2023-03-20T00:25:18;2.10;;;1.43;;
19036;SDS011;9651;49.138;8.900;2023-03-20T00:29:22;1.40;;;1.30;;
19036;SDS011;9651;49.138;8.900;2023-03-20T00:33:27;2.80;;;1.50;;
19036;SDS011;9651;49.138;8.900;2023-03-20T00:37:30;2.97;;;1.43;;
19036;SDS011;9651;49.138;8.900;2023-03-20T00:41:34;1.97;;;1.67;;
19036;SDS011;9651;49.138;8.900;2023-03-20T00:45:41;2.07;;;1.70;;
19036;SDS011;9651;49.138;8.900;2023-03-20T00:49:48;1.70;;;1.60;;
19036;SDS011;9651;49.138;8.900;2023-03-20T00:53:51;3.43;;;1.43;;
19036;SDS011;9651;49.138;8.900;2023-03-20T00:57:54;2.13;;;1.57;;
19036;SDS011;9651;49.138;8.900;2023-03-20T01:01:57;1.53;;;1.30;;
19036;SDS011;9651;49.138;8.900;2023-03-20T01:06:01;3.33;;;1.43;;
19036;SDS011;9651;49.138;8.900;2023-03-20T01:10:03;1.70;;;1.27;;
19036;SDS011;9651;49.138;8.900;2023-03-20T01:14:06;1.40;;;1.30;;
19036;SDS011;9651;49.138;8.900;2023-03-20T01:18:13;2.53;;;1.73;;
19036;SDS011;9651;49.138;8.900;2023-03-20T01:22:17;2.03;;;1.53;;
19036;SDS011;9651;49.138;8.900;2023-03-20T01:26:21;1.77;;;1.50;;
19036;SDS011;9651;49.138;8.900;2023-03-20T01:30:27;1.93;;;1.73;;
19036;SDS011;9651;49.138;8.900;2023-03-20T01:34:30;1.60;;;1.17;;
19036;SDS011;9651;49.138;8.900;2023-03-20T01:38:34;3.30;;;2.03;;
19036;SDS011;9651;49.138;8.900;2023-03-20T01:42:36;2.60;;;1.70;;
19036;SDS011;9651;49.138;8.900;2023-03-20T01:46:38;2.47;;;1.67;;
19036;SDS011;9651;49.138;8.900;2023-03-20T01:50:50;2.37;;;1.63;;
19036;SDS011;9651;49.138;8.900;2023-03-20T01:54:53;1.93;;;1.70;;
19036;SDS011;9651;49.138;8.900;2023-03-20T01:58:56;2.33;;;1.87;;
19036;SDS011;9651;49.138;8.900;2023-03-20T02:03:02;1.93;;;1.73;;
19036;SDS011;9651;49.138;8.900;2023-03-20T02:07:39;2.17;;;1.77;;
19036;SDS011;9651;49.138;8.900;2023-03-20T02:11:44;2.63;;;1.87;;
19036;SDS011;9651;49.138;8.900;2023-03-20T02:15:57;1.83;;;1.63;;
19036;SDS011;9651;49.138;8.900;2023-03-20T02:20:30;1.77;;;1.30;;
19036;SDS011;9651;49.138;8.900;2023-03-20T02:24:47;1.50;;;1.13;;
19036;SDS011;9651;49.138;8.900;2023-03-20T02:29:27;1.40;;;1.20;;
19036;SDS011;9651;49.138;8.900;2023-03-20T02:33:59;1.20;;;1.10;;
19036;SDS011;9651;49.138;8.900;2023-03-20T02:38:33;1.43;;;1.20;;
19036;SDS011;9651;49.138;8.900;2023-03-20T02:42:45;1.97;;;1.40;;
19036;SDS011;9651;49.138;8.900;2023-03-20T02:46:55;1.70;;;1.30;;
19036;SDS011;9651;49.138;8.900;2023-03-20T02:51:01;3.70;;;1.33;;
19036;SDS011;9651;49.138;8.900;2023-03-20T02:55:12;1.63;;;1.27;;
19036;SDS011;9651;49.138;8.900;2023-03-20T02:59:19;1.40;;;1.00;;
19036;SDS011;9651;49.138;8.900;2023-03-20T03:03:28;2.23;;;1.47;;
19036;SDS011;9651;49.138;8.900;2023-03-20T03:07:35;1.87;;;1.23;;
19036;SDS011;9651;49.138;8.900;2023-03-20T03:11:44;2.87;;;1.30;;
19036;SDS011;9651;49.138;8.900;2023-03-20T03:15:50;1.70;;;1.40;;
19036;SDS011;9651;49.138;8.900;2023-03-20T03:19:57;2.23;;;1.90;;
19036;SDS011;9651;49.138;8.900;2023-03-20T03:24:06;2.17;;;1.80;;
19036;SDS011;9651;49.138;8.900;2023-03-20T03:28:26;2.43;;;2.10;;
19036;SDS011;9651;49.138;8.900;2023-03-20T03:32:37;5.27;;;1.90;;
19036;SDS011;9651;49.138;8.900;2023-03-20T03:36:47;4.67;;;2.70;;
19036;SDS011;9651;49.138;8.900;2023-03-20T03:40:57;3.40;;;2.00;;
19036;SDS011;9651;49.138;8.900;2023-03-20T03:45:08;5.67;;;2.83;;
19036;SDS011;9651;49.138;8.900;2023-03-20T03:49:15;3.63;;;2.70;;
19036;SDS011;9651;49.138;8.900;2023-03-20T03:53:24;4.30;;;3.13;;
19036;SDS011;9651;49.138;8.900;2023-03-20T03:57:33;5.70;;;3.57;;
19036;SDS011;9651;49.138;8.900;2023-03-20T04:01:42;5.83;;;4.10;;
19036;SDS011;9651;49.138;8.900;2023-03-20T04:05:46;10.90;;;4.90;;
19036;SDS011;9651;49.138;8.900;2023-03-20T04:09:50;7.77;;;4.73;;
19036;SDS011;9651;49.138;8.900;2023-03-20T04:13:52;7.07;;;4.30;;
19036;SDS011;9651;49.138;8.900;2023-03-20T04:17:56;6.73;;;4.53;;
19036;SDS011;9651;49.138;8.900;2023-03-20T04:21:58;8.23;;;4.83;;
19036;SDS011;9651;49.138;8.900;2023-03-20T04:26:00;7.10;;;4.80;;
19036;SDS011;9651;49.138;8.900;2023-03-20T04:30:07;6.67;;;4.67;;
19036;SDS011;9651;49.138;8.900;2023-03-20T04:34:46;6.17;;;4.73;;
19036;SDS011;9651;49.138;8.900;2023-03-20T04:39:07;7.93;;;5.03;;
19036;SDS011;9651;49.138;8.900;2023-03-20T04:43:09;9.00;;;5.57;;
19036;SDS011;9651;49.138;8.900;2023-03-20T04:47:12;7.00;;;5.27;;
19036;SDS011;9651;49.138;8.900;2023-03-20T04:51:17;9.30;;;5.03;;
19036;SDS011;9651;49.138;8.900;2023-03-20T04:55:23;6.93;;;5.50;;
19036;SDS011;9651;49.138;8.900;2023-03-20T04:59:27;8.17;;;5.27;;
19036;SDS011;9651;49.138;8.900;2023-03-20T05:03:29;7.83;;;5.67;;
19036;SDS011;9651;49.138;8.900;2023-03-20T05:07:33;10.60;;;6.33;;
19036;SDS011;9651;49.138;8.900;2023-03-20T05:11:40;9.93;;;6.70;;
19036;SDS011;9651;49.138;8.900;2023-03-20T05:16:06;11.20;;;6.80;;
19036;SDS011;9651;49.138;8.900;2023-03-20T05:20:17;12.27;;;7.57;;
19036;SDS011;9651;49.138;8.900;2023-03-20T05:24:31;9.50;;;7.17;;
19036;SDS011;9651;49.138;8.900;2023-03-20T05:28:41;9.67;;;7.07;;
19036;SDS011;9651;49.138;8.900;2023-03-20T05:32:51;10.03;;;7.10;;
19036;SDS011;9651;49.138;8.900;2023-03-20T05:37:13;11.60;;;7.17;;
19036;SDS011;9651;49.138;8.900;2023-03-20T05:41:35;10.80;;;7.23;;
19036;SDS011;9651;49.138;8.900;2023-03-20T05:45:56;12.00;;;7.50;;
19036;SDS011;9651;49.138;8.900;2023-03-20T05:50:17;11.00;;;7.43;;
19036;SDS011;9651;49.138;8.900;2023-03-20T05:54:35;13.27;;;7.77;;
19036;SDS011;9651;49.138;8.900;2023-03-20T05:58:57;11.20;;;7.17;;
19036;SDS011;9651;49.138;8.900;2023-03-20T06:03:12;11.77;;;7.57;;
19036;SDS011;9651;49.138;8.900;2023-03-20T06:07:30;9.00;;;7.07;;
19036;SDS011;9651;49.138;8.900;2023-03-20T06:11:35;9.57;;;7.27;;
19036;SDS011;9651;49.138;8.900;2023-03-20T06:15:38;10.60;;;7.60;;
19036;SDS011;9651;49.138;8.900;2023-03-20T06:19:48;11.90;;;7.60;;
19036;SDS011;9651;49.138;8.900;2023-03-20T06:23:50;10.20;;;7.27;;
19036;SDS011;9651;49.138;8.900;2023-03-20T06:27:56;9.53;;;7.50;;
19036;SDS011;9651;49.138;8.900;2023-03-20T06:31:59;12.20;;;7.70;;
19036;SDS011;9651;49.138;8.900;2023-03-20T06:36:03;10.00;;;6.70;;
19036;SDS011;9651;49.138;8.900;2023-03-20T06:40:07;9.10;;;6.80;;
19036;SDS011;9651;49.138;8.900;2023-03-20T06:44:11;9.80;;;7.47;;
19036;SDS011;9651;49.138;8.900;2023-03-20T06:48:34;9.50;;;6.97;;
19036;SDS011;9651;49.138;8.900;2023-03-20T06:52:39;10.83;;;7.03;;
19036;SDS011;9651;49.138;8.900;2023-03-20T06:57:07;13.77;;;7.97;;
19036;SDS011;9651;49.138;8.900;2023-03-20T07:01:10;13.73;;;8.60;;
19036;SDS011;9651;49.138;8.900;2023-03-20T07:05:15;12.50;;;8.40;;
19036;SDS011;9651;49.138;8.900;2023-03-20T07:09:18;14.70;;;9.50;;
19036;SDS011;9651;49.138;8.900;2023-03-20T07:13:21;13.53;;;8.43;;
19036;SDS011;9651;49.138;8.900;2023-03-20T07:17:24;13.63;;;9.27;;
19036;SDS011;9651;49.138;8.900;2023-03-20T07:21:27;14.37;;;9.83;;
19036;SDS011;9651;49.138;8.900;2023-03-20T07:25:31;14.80;;;10.07;;
19036;SDS011;9651;49.138;8.900;2023-03-20T07:29:34;14.00;;;9.73;;
19036;SDS011;9651;49.138;8.900;2023-03-20T07:33:42;16.70;;;9.97;;
19036;SDS011;9651;49.138;8.900;2023-03-20T07:37:45;12.30;;;8.33;;
19036;SDS011;9651;49.138;8.900;2023-03-20T07:41:47;12.97;;;8.80;;
19036;SDS011;9651;49.138;8.900;2023-03-20T07:46:00;16.40;;;9.33;;
19036;SDS011;9651;49.138;8.900;2023-03-20T07:50:03;12.80;;;8.53;;
19036;SDS011;9651;49.138;8.900;2023-03-20T07:54:07;13.90;;;9.30;;
19036;SDS011;9651;49.138;8.900;2023-03-20T07:58:10;11.17;;;8.13;;
19036;SDS011;9651;49.138;8.900;2023-03-20T08:02:13;11.03;;;7.63;;
19036;SDS011;9651;49.138;8.900;2023-03-20T08:06:15;12.67;;;7.60;;
19036;SDS011;9651;49.138;8.900;2023-03-20T08:10:19;26.40;;;14.87;;
19036;SDS011;9651;49.138;8.900;2023-03-20T08:14:21;13.57;;;9.13;;
19036;SDS011;9651;49.138;8.900;2023-03-20T08:18:23;13.67;;;9.83;;
19036;SDS011;9651;49.138;8.900;2023-03-20T08:22:25;12.57;;;8.17;;
19036;SDS011;9651;49.138;8.900;2023-03-20T08:26:28;11.67;;;7.47;;
19036;SDS011;9651;49.138;8.900;2023-03-20T08:30:30;12.17;;;7.90;;
19036;SDS011;9651;49.138;8.900;2023-03-20T08:34:32;13.00;;;8.57;;
19036;SDS011;9651;49.138;8.900;2023-03-20T08:38:34;11.93;;;8.37;;
19036;SDS011;9651;49.138;8.900;2023-03-20T08:42:37;12.37;;;8.00;;
19036;SDS011;9651;49.138;8.900;2023-03-20T08:46:39;11.53;;;7.83;;
19036;SDS011;9651;49.138;8.900;2023-03-20T08:50:42;10.57;;;7.23;;
19036;SDS011;9651;49.138;8.900;2023-03-20T08:54:45;10.80;;;7.10;;
19036;SDS011;9651;49.138;8.900;2023-03-20T08:58:48;10.07;;;6.97;;
19036;SDS011;9651;49.138;8.900;2023-03-20T09:02:52;11.80;;;7.23;;
19036;SDS011;9651;49.138;8.900;2023-03-20T09:06:54;10.87;;;7.13;;
19036;SDS011;9651;49.138;8.900;2023-03-20T09:10:56;8.83;;;6.27;;
19036;SDS011;9651;49.138;8.900;2023-03-20T09:14:59;10.87;;;6.67;;
19036;SDS011;9651;49.138;8.900;2023-03-20T09:19:01;9.90;;;6.57;;
19036;SDS011;9651;49.138;8.900;2023-03-20T09:23:03;10.57;;;6.80;;
19036;SDS011;9651;49.138;8.900;2023-03-20T09:27:06;9.63;;;6.20;;
19036;SDS011;9651;49.138;8.900;2023-03-20T09:31:09;9.47;;;5.97;;
19036;SDS011;9651;49.138;8.900;2023-03-20T09:35:11;15.10;;;7.47;;
19036;SDS011;9651;49.138;8.900;2023-03-20T09:39:13;8.30;;;5.93;;
19036;SDS011;9651;49.138;8.900;2023-03-20T09:43:17;7.77;;;6.10;;
19036;SDS011;9651;49.138;8.900;2023-03-20T09:47:31;7.87;;;6.00;;
19036;SDS011;9651;49.138;8.900;2023-03-20T09:51:37;8.97;;;6.37;;
19036;SDS011;9651;49.138;8.900;2023-03-20T09:55:41;7.67;;;5.87;;
19036;SDS011;9651;49.138;8.900;2023-03-20T09:59:45;10.03;;;6.73;;
19036;SDS011;9651;49.138;8.900;2023-03-20T10:03:51;9.17;;;6.73;;
19036;SDS011;9651;49.138;8.900;2023-03-20T10:07:56;9.30;;;6.67;;
19036;SDS011;9651;49.138;8.900;2023-03-20T10:12:06;8.67;;;6.13;;
19036;SDS011;9651;49.138;8.900;2023-03-20T10:16:21;9.87;;;6.47;;
19036;SDS011;9651;49.138;8.900;2023-03-20T10:20:32;9.40;;;7.03;;
19036;SDS011;9651;49.138;8.900;2023-03-20T10:24:37;11.10;;;7.10;;
19036;SDS011;9651;49.138;8.900;2023-03-20T10:28:42;11.53;;;7.83;;
19036;SDS011;9651;49.138;8.900;2023-03-20T10:32:54;11.10;;;8.07;;
19036;SDS011;9651;49.138;8.900;2023-03-20T10:37:14;11.13;;;7.57;;
19036;SDS011;9651;49.138;8.900;2023-03-20T10:41:24;9.97;;;6.77;;
19036;SDS011;9651;49.138;8.900;2023-03-20T10:45:31;7.40;;;5.73;;
19036;SDS011;9651;49.138;8.900;2023-03-20T10:49:37;6.63;;;5.30;;
19036;SDS011;9651;49.138;8.900;2023-03-20T10:53:45;8.37;;;5.80;;
19036;SDS011;9651;49.138;8.900;2023-03-20T10:57:49;6.53;;;5.17;;
19036;SDS011;9651;49.138;8.900;2023-03-20T11:01:57;8.10;;;5.13;;
19036;SDS011;9651;49.138;8.900;2023-03-20T11:06:00;6.23;;;5.20;;
19036;SDS011;9651;49.138;8.900;2023-03-20T11:10:09;6.05;;;4.25;;
19036;SDS011;9651;49.138;8.900;2023-03-20T11:14:16;5.68;;;4.40;;
19036;SDS011;9651;49.138;8.900;2023-03-20T11:18:20;5.68;;;4.07;;
19036;SDS011;9651;49.138;8.900;2023-03-20T11:22:25;4.80;;;3.70;;
19036;SDS011;9651;49.138;8.900;2023-03-20T11:26:33;4.68;;;3.67;;
19036;SDS011;9651;49.138;8.900;2023-03-20T11:30:38;5.50;;;4.00;;
19036;SDS011;9651;49.138;8.900;2023-03-20T11:34:41;4.47;;;3.38;;
19036;SDS011;9651;49.138;8.900;2023-03-20T11:38:43;3.50;;;3.20;;
19036;SDS011;9651;49.138;8.900;2023-03-20T11:42:54;5.07;;;3.42;;
19036;SDS011;9651;49.138;8.900;2023-03-20T11:46:59;3.97;;;3.58;;
19036;SDS011;9651;49.138;8.900;2023-03-20T11:51:03;3.78;;;3.22;;
19036;SDS011;9651;49.138;8.900;2023-03-20T11:55:22;3.72;;;3.15;;
19036;SDS011;9651;49.138;8.900;2023-03-20T11:59:30;3.80;;;3.25;;
19036;SDS011;9651;49.138;8.900;2023-03-20T12:03:41;5.55;;;3.45;;
19036;SDS011;9651;49.138;8.900;2023-03-20T12:07:47;4.78;;;3.33;;
19036;SDS011;9651;49.138;8.900;2023-03-20T12:11:52;6.30;;;3.72;;
19036;SDS011;9651;49.138;8.900;2023-03-20T12:16:00;3.92;;;3.05;;
19036;SDS011;9651;49.138;8.900;2023-03-20T12:20:09;4.63;;;3.10;;
19036;SDS011;9651;49.138;8.900;2023-03-20T12:24:23;4.30;;;3.25;;
19036;SDS011;9651;49.138;8.900;2023-03-20T12:28:32;4.50;;;3.10;;
19036;SDS011;9651;49.138;8.900;2023-03-20T12:32:41;4.50;;;2.97;;
19036;SDS011;9651;49.138;8.900;2023-03-20T12:36:49;3.20;;;2.63;;
19036;SDS011;9651;49.138;8.900;2023-03-20T12:40:53;3.58;;;2.80;;
19036;SDS011;9651;49.138;8.900;2023-03-20T12:45:03;4.25;;;2.75;;
19036;SDS011;9651;49.138;8.900;2023-03-20T12:49:17;3.35;;;2.80;;
19036;SDS011;9651;49.138;8.900;2023-03-20T12:53:34;5.05;;;2.63;;
19036;SDS011;9651;49.138;8.900;2023-03-20T12:57:49;3.20;;;2.50;;
19036;SDS011;9651;49.138;8.900;2023-03-20T13:02:01;3.53;;;2.53;;
19036;SDS011;9651;49.138;8.900;2023-03-20T13:06:14;3.08;;;2.28;;
19036;SDS011;9651;49.138;8.900;2023-03-20T13:10:24;4.05;;;2.97;;
19036;SDS011;9651;49.138;8.900;2023-03-20T13:14:32;3.85;;;2.28;;
19036;SDS011;9651;49.138;8.900;2023-03-20T13:18:45;4.05;;;2.72;;
19036;SDS011;9651;49.138;8.900;2023-03-20T13:23:01;3.05;;;2.38;;
19036;SDS011;9651;49.138;8.900;2023-03-20T13:27:13;5.25;;;2.95;;
19036;SDS011;9651;49.138;8.900;2023-03-20T13:31:25;4.55;;;2.70;;
19036;SDS011;9651;49.138;8.900;2023-03-20T13:35:42;3.75;;;2.95;;
19036;SDS011;9651;49.138;8.900;2023-03-20T13:39:56;6.50;;;2.80;;
19036;SDS011;9651;49.138;8.900;2023-03-20T13:44:03;3.10;;;2.80;;
19036;SDS011;9651;49.138;8.900;2023-03-20T13:48:11;6.35;;;3.35;;
19036;SDS011;9651;49.138;8.900;2023-03-20T13:52:25;3.92;;;2.88;;
19036;SDS011;9651;49.138;8.900;2023-03-20T13:56:34;3.25;;;2.78;;
19036;SDS011;9651;49.138;8.900;2023-03-20T14:00:45;3.30;;;2.78;;
19036;SDS011;9651;49.138;8.900;2023-03-20T14:04:56;4.88;;;3.55;;
19036;SDS011;9651;49.138;8.900;2023-03-20T14:09:03;3.80;;;3.03;;
19036;SDS011;9651;49.138;8.900;2023-03-20T14:13:26;3.03;;;2.70;;
19036;SDS011;9651;49.138;8.900;2023-03-20T14:17:31;4.50;;;2.75;;
19036;SDS011;9651;49.138;8.900;2023-03-20T14:21:34;5.63;;;3.20;;
19036;SDS011;9651;49.138;8.900;2023-03-20T14:25:38;5.32;;;2.83;;
19036;SDS011;9651;49.138;8.900;2023-03-20T14:29:44;2.30;;;2.08;;
19036;SDS011;9651;49.138;8.900;2023-03-20T14:33:47;3.83;;;2.45;;
19036;SDS011;9651;49.138;8.900;2023-03-20T14:38:05;2.65;;;2.00;;
19036;SDS011;9651;49.138;8.900;2023-03-20T14:42:24;5.47;;;2.88;;
19036;SDS011;9651;49.138;8.900;2023-03-20T14:46:41;4.10;;;2.30;;
19036;SDS011;9651;49.138;8.900;2023-03-20T14:50:51;4.32;;;2.55;;
19036;SDS011;9651;49.138;8.900;2023-03-20T14:55:26;2.60;;;2.10;;
19036;SDS011;9651;49.138;8.900;2023-03-20T14:59:33;2.95;;;2.13;;
19036;SDS011;9651;49.138;8.900;2023-03-20T15:03:36;5.97;;;2.58;;
19036;SDS011;9651;49.138;8.900;2023-03-20T15:07:41;4.25;;;2.53;;
19036;SDS011;9651;49.138;8.900;2023-03-20T15:11:44;4.03;;;2.45;;
19036;SDS011;9651;49.138;8.900;2023-03-20T15:15:51;2.90;;;2.00;;
19036;SDS011;9651;49.138;8.900;2023-03-20T15:20:03;3.80;;;2.28;;
19036;SDS011;9651;49.138;8.900;2023-03-20T15:24:18;9.57;;;2.28;;
19036;SDS011;9651;49.138;8.900;2023-03-20T15:28:23;2.88;;;1.98;;
19036;SDS011;9651;49.138;8.900;2023-03-20T15:32:26;6.32;;;2.20;;
19036;SDS011;9651;49.138;8.900;2023-03-20T15:36:31;4.43;;;2.25;;
19036;SDS011;9651;49.138;8.900;2023-03-20T15:40:37;4.43;;;2.10;;
19036;SDS011;9651;49.138;8.900;2023-03-20T15:44:40;4.65;;;1.92;;
19036;SDS011;9651;49.138;8.900;2023-03-20T15:48:47;3.65;;;1.90;;
19036;SDS011;9651;49.138;8.900;2023-03-20T15:52:51;5.55;;;2.40;;
19036;SDS011;9651;49.138;8.900;2023-03-20T15:56:55;6.95;;;2.38;;
19036;SDS011;9651;49.138;8.900;2023-03-20T16:00:59;5.78;;;2.40;;
19036;SDS011;9651;49.138;8.900;2023-03-20T16:05:03;4.83;;;2.17;;
19036;SDS011;9651;49.138;8.900;2023-03-20T16:09:12;4.13;;;2.38;;
19036;SDS011;9651;49.138;8.900;2023-03-20T16:13:15;4.88;;;2.40;;
19036;SDS011;9651;49.138;8.900;2023-03-20T16:17:17;3.83;;;2.10;;
19036;SDS011;9651;49.138;8.900;2023-03-20T16:21:23;4.68;;;2.47;;
19036;SDS011;9651;49.138;8.900;2023-03-20T16:25:30;3.50;;;2.47;;
19036;SDS011;9651;49.138;8.900;2023-03-20T16:29:32;7.20;;;2.83;;
19036;SDS011;9651;49.138;8.900;2023-03-20T16:33:34;5.70;;;2.38;;
19036;SDS011;9651;49.138;8.900;2023-03-20T16:37:40;3.97;;;2.10;;
19036;SDS011;9651;49.138;8.900;2023-03-20T16:41:45;3.03;;;1.80;;
19036;SDS011;9651;49.138;8.900;2023-03-20T16:45:51;2.85;;;2.20;;
19036;SDS011;9651;49.138;8.900;2023-03-20T16:54:17;2.57;;;1.90;;
19036;SDS011;9651;49.138;8.900;2023-03-20T16:58:22;6.20;;;1.90;;
19036;SDS011;9651;49.138;8.900;2023-03-20T17:02:29;4.83;;;2.90;;
19036;SDS011;9651;49.138;8.900;2023-03-20T17:06:36;4.67;;;2.10;;
19036;SDS011;9651;49.138;8.900;2023-03-20T17:10:43;4.27;;;2.33;;
19036;SDS011;9651;49.138;8.900;2023-03-20T17:14:50;4.43;;;2.33;;
19036;SDS011;9651;49.138;8.900;2023-03-20T17:18:57;7.23;;;2.37;;
19036;SDS011;9651;49.138;8.900;2023-03-20T17:23:00;7.03;;;2.17;;
19036;SDS011;9651;49.138;8.900;2023-03-20T17:27:02;2.87;;;2.23;;
19036;SDS011;9651;49.138;8.900;2023-03-20T17:31:05;7.50;;;2.30;;
19036;SDS011;9651;49.138;8.900;2023-03-20T17:35:09;4.27;;;1.77;;
19036;SDS011;9651;49.138;8.900;2023-03-20T17:39:13;2.30;;;1.77;;
19036;SDS011;9651;49.138;8.900;2023-03-20T17:43:18;9.17;;;3.63;;
19036;SDS011;9651;49.138;8.900;2023-03-20T17:47:22;11.00;;;3.00;;
19036;SDS011;9651;49.138;8.900;2023-03-20T17:51:25;4.77;;;2.87;;
19036;SDS011;9651;49.138;8.900;2023-03-20T17:55:27;17.93;;;3.80;;
19036;SDS011;9651;49.138;8.900;2023-03-20T17:59:29;5.00;;;2.53;;
19036;SDS011;9651;49.138;8.900;2023-03-20T18:03:33;5.97;;;2.63;;
19036;SDS011;9651;49.138;8.900;2023-03-20T18:07:35;6.00;;;2.07;;
19036;SDS011;9651;49.138;8.900;2023-03-20T18:11:37;5.60;;;2.17;;
19036;SDS011;9651;49.138;8.900;2023-03-20T18:15:39;4.50;;;2.30;;
19036;SDS011;9651;49.138;8.900;2023-03-20T18:19:42;3.90;;;2.50;;
19036;SDS011;9651;49.138;8.900;2023-03-20T18:23:44;4.30;;;3.03;;
19036;SDS011;9651;49.138;8.900;2023-03-20T18:27:47;4.60;;;3.53;;
19036;SDS011;9651;49.138;8.900;2023-03-20T18:31:49;4.47;;;2.87;;
19036;SDS011;9651;49.138;8.900;2023-03-20T18:35:52;2.87;;;1.77;;
19036;SDS011;9651;49.138;8.900;2023-03-20T18:39:54;3.87;;;1.80;;
19036;SDS011;9651;49.138;8.900;2023-03-20T18:43:56;3.23;;;2.13;;
19036;SDS011;9651;49.138;8.900;2023-03-20T18:47:59;3.87;;;2.10;;
19036;SDS011;9651;49.138;8.900;2023-03-20T18:52:04;4.37;;;2.57;;
19036;SDS011;9651;49.138;8.900;2023-03-20T18:56:09;4.93;;;3.03;;
19036;SDS011;9651;49.138;8.900;2023-03-20T19:00:17;3.67;;;3.00;;
19036;SDS011;9651;49.138;8.900;2023-03-20T19:04:20;5.20;;;1.97;;
19036;SDS011;9651;49.138;8.900;2023-03-20T19:08:24;5.47;;;2.00;;
19036;SDS011;9651;49.138;8.900;2023-03-20T19:12:26;4.00;;;2.30;;
19036;SDS011;9651;49.138;8.900;2023-03-20T19:16:29;3.20;;;1.90;;
19036;SDS011;9651;49.138;8.900;2023-03-20T19:20:33;4.50;;;2.90;;
19036;SDS011;9651;49.138;8.900;2023-03-20T19:24:37;4.83;;;2.90;;
19036;SDS011;9651;49.138;8.900;2023-03-20T19:28:39;5.00;;;2.70;;
19036;SDS011;9651;49.138;8.900;2023-03-20T19:32:42;4.57;;;3.23;;
19036;SDS011;9651;49.138;8.900;2023-03-20T19:36:44;8.53;;;5.60;;
19036;SDS011;9651;49.138;8.900;2023-03-20T19:40:49;6.87;;;4.87;;
19036;SDS011;9651;49.138;8.900;2023-03-20T19:44:52;7.93;;;3.90;;
19036;SDS011;9651;49.138;8.900;2023-03-20T19:48:54;5.50;;;3.43;;
19036;SDS011;9651;49.138;8.900;2023-03-20T19:52:56;7.37;;;3.10;;
19036;SDS011;9651;49.138;8.900;2023-03-20T19:57:00;8.70;;;3.33;;
19036;SDS011;9651;49.138;8.900;2023-03-20T20:01:02;4.90;;;3.70;;
19036;SDS011;9651;49.138;8.900;2023-03-20T20:05:04;6.93;;;3.43;;
19036;SDS011;9651;49.138;8.900;2023-03-20T20:09:06;6.67;;;4.00;;
19036;SDS011;9651;49.138;8.900;2023-03-20T20:13:10;5.73;;;3.00;;
19036;SDS011;9651;49.138;8.900;2023-03-20T20:17:15;3.60;;;2.77;;
19036;SDS011;9651;49.138;8.900;2023-03-20T20:21:17;4.17;;;2.70;;
19036;SDS011;9651;49.138;8.900;2023-03-20T20:25:19;3.23;;;2.40;;
19036;SDS011;9651;49.138;8.900;2023-03-20T20:29:22;3.10;;;2.20;;
19036;SDS011;9651;49.138;8.900;2023-03-20T20:33:24;3.50;;;2.70;;
19036;SDS011;9651;49.138;8.900;2023-03-20T20:37:26;4.43;;;2.83;;
19036;SDS011;9651;49.138;8.900;2023-03-20T20:41:28;3.90;;;2.97;;
19036;SDS011;9651;49.138;8.900;2023-03-20T20:45:31;4.90;;;3.37;;
19036;SDS011;9651;49.138;8.900;2023-03-20T20:49:34;5.87;;;3.00;;
19036;SDS011;9651;49.138;8.900;2023-03-20T20:53:36;3.53;;;2.70;;
19036;SDS011;9651;49.138;8.900;2023-03-20T20:57:38;5.43;;;2.80;;
19036;SDS011;9651;49.138;8.900;2023-03-20T21:01:41;5.30;;;2.70;;
19036;SDS011;9651;49.138;8.900;2023-03-20T21:05:43;4.87;;;3.30;;
19036;SDS011;9651;49.138;8.900;2023-03-20T21:09:45;5.87;;;2.67;;
19036;SDS011;9651;49.138;8.900;2023-03-20T21:13:49;4.60;;;3.20;;
19036;SDS011;9651;49.138;8.900;2023-03-20T21:17:52;3.30;;;2.67;;
19036;SDS011;9651;49.138;8.900;2023-03-20T21:21:54;5.53;;;2.93;;
19036;SDS011;9651;49.138;8.900;2023-03-20T21:25:56;7.40;;;3.23;;
19036;SDS011;9651;49.138;8.900;2023-03-20T21:29:58;6.20;;;3.33;;
19036;SDS011;9651;49.138;8.900;2023-03-20T21:34:02;4.97;;;3.80;;
19036;SDS011;9651;49.138;8.900;2023-03-20T21:38:04;7.77;;;4.13;;
19036;SDS011;9651;49.138;8.900;2023-03-20T21:42:06;8.60;;;3.90;;
19036;SDS011;9651;49.138;8.900;2023-03-20T21:46:08;7.63;;;4.33;;
19036;SDS011;9651;49.138;8.900;2023-03-20T21:50:11;5.27;;;4.00;;
19036;SDS011;9651;49.138;8.900;2023-03-20T21:54:13;7.03;;;4.03;;
19036;SDS011;9651;49.138;8.900;2023-03-20T21:58:15;5.20;;;3.97;;
19036;SDS011;9651;49.138;8.900;2023-03-20T22:02:18;9.03;;;5.23;;
19036;SDS011;9651;49.138;8.900;2023-03-20T22:06:22;8.93;;;6.10;;
19036;SDS011;9651;49.138;8.900;2023-03-20T22:10:24;7.03;;;5.40;;
19036;SDS011;9651;49.138;8.900;2023-03-20T22:14:26;8.80;;;4.53;;
19036;SDS011;9651;49.138;8.900;2023-03-20T22:18:28;5.13;;;3.63;;
19036;SDS011;9651;49.138;8.900;2023-03-20T22:22:31;6.87;;;4.17;;
19036;SDS011;9651;49.138;8.900;2023-03-20T22:26:33;5.43;;;3.67;;
19036;SDS011;9651;49.138;8.900;2023-03-20T22:30:36;4.47;;;3.50;;
19036;SDS011;9651;49.138;8.900;2023-03-20T22:34:38;6.40;;;4.27;;
19036;SDS011;9651;49.138;8.900;2023-03-20T22:38:42;7.47;;;3.70;;
19036;SDS011;9651;49.138;8.900;2023-03-20T22:42:44;6.10;;;3.70;;
19036;SDS011;9651;49.138;8.900;2023-03-20T22:46:46;5.07;;;3.07;;
19036;SDS011;9651;49.138;8.900;2023-03-20T22:50:48;6.57;;;3.57;;
19036;SDS011;9651;49.138;8.900;2023-03-20T22:54:52;3.67;;;3.27;;
19036;SDS011;9651;49.138;8.900;2023-03-20T22:58:54;6.27;;;3.20;;
19036;SDS011;9651;49.138;8.900;2023-03-20T23:02:56;4.50;;;3.20;;
19036;SDS011;9651;49.138;8.900;2023-03-20T23:06:58;7.40;;;3.33;;
19036;SDS011;9651;49.138;8.900;2023-03-20T23:11:03;6.67;;;3.60;;
19036;SDS011;9651;49.138;8.900;2023-03-20T23:15:07;4.73;;;3.00;;
19036;SDS011;9651;49.138;8.900;2023-03-20T23:19:10;5.43;;;3.20;;
19036;SDS011;9651;49.138;8.900;2023-03-20T23:23:12;5.23;;;3.33;;
19036;SDS011;9651;49.138;8.900;2023-03-20T23:27:15;6.00;;;3.47;;
19036;SDS011;9651;49.138;8.900;2023-03-20T23:31:19;5.83;;;2.90;;
19036;SDS011;9651;49.138;8.900;2023-03-20T23:35:22;6.33;;;3.40;;
19036;SDS011;9651;49.138;8.900;2023-03-20T23:39:24;5.97;;;3.20;;
19036;SDS011;9651;49.138;8.900;2023-03-20T23:43:27;5.00;;;3.40;;
19036;SDS011;9651;49.138;8.900;2023-03-20T23:47:29;4.70;;;3.10;;
19036;SDS011;9651;49.138;8.900;2023-03-20T23:51:31;4.00;;;3.17;;
19036;SDS011;9651;49.138;8.900;2023-03-20T23:55:33;5.03;;;2.90;;
19036;SDS011;9651;49.138;8.900;2023-03-20T23:59:36;6.53;;;3.03;;
